createdAt,value
2019-04-25T00:00:52.399Z,1.37
2019-04-25T00:03:25.088Z,1.20
2019-04-25T00:05:53.535Z,1.47
2019-04-25T00:08:22.407Z,1.50
2019-04-25T00:10:51.711Z,1.20
2019-04-25T00:13:21.838Z,1.30
2019-04-25T00:15:51.906Z,1.30
2019-04-25T00:18:23.198Z,1.13
2019-04-25T00:20:52.979Z,1.20
2019-04-25T00:23:22.196Z,1.10
2019-04-25T00:25:52.826Z,1.00
2019-04-25T00:28:21.717Z,1.27
2019-04-25T00:30:52.000Z,1.27
2019-04-25T00:33:21.550Z,1.07
2019-04-25T00:35:51.677Z,1.00
2019-04-25T00:38:22.222Z,1.10
2019-04-25T00:40:52.484Z,0.90
2019-04-25T00:43:21.511Z,0.80
2019-04-25T00:45:51.647Z,1.10
2019-04-25T00:48:22.207Z,1.00
2019-04-25T00:50:52.099Z,1.00
2019-04-25T00:53:21.239Z,0.90
2019-04-25T00:55:51.631Z,0.90
2019-04-25T00:58:21.550Z,1.10
2019-04-25T01:01:02.046Z,1.17
2019-04-25T01:03:32.303Z,1.57
2019-04-25T01:06:03.472Z,1.07
2019-04-25T01:08:31.977Z,1.03
2019-04-25T01:11:01.710Z,1.00
2019-04-25T01:13:30.268Z,1.00
2019-04-25T01:15:58.737Z,1.00
2019-04-25T01:18:27.467Z,1.10
2019-04-25T01:20:56.521Z,1.00
2019-04-25T01:23:24.961Z,1.13
2019-04-25T01:25:54.594Z,1.10
2019-04-25T01:28:24.351Z,1.00
2019-04-25T01:30:54.788Z,1.17
2019-04-25T01:33:23.370Z,1.43
2019-04-25T01:36:03.450Z,1.10
2019-04-25T01:38:33.922Z,1.17
2019-04-25T01:41:10.241Z,1.27
2019-04-25T01:43:58.373Z,1.27
2019-04-25T01:46:25.839Z,1.27
2019-04-25T01:48:55.385Z,1.30
2019-04-25T01:51:24.940Z,1.13
2019-04-25T01:53:54.855Z,1.17
2019-04-25T01:56:24.770Z,1.23
2019-04-25T01:58:54.730Z,1.23
2019-04-25T02:01:24.197Z,1.40
2019-04-25T02:03:54.302Z,1.50
2019-04-25T02:06:24.765Z,1.40
2019-04-25T02:08:55.275Z,1.60
2019-04-25T02:11:28.782Z,1.70
2019-04-25T02:13:57.448Z,1.70
2019-04-25T02:16:26.365Z,1.63
2019-04-25T02:18:56.138Z,1.40
2019-04-25T02:21:25.063Z,1.60
2019-04-25T02:23:55.439Z,1.60
2019-04-25T02:26:24.115Z,1.60
2019-04-25T02:28:55.174Z,1.63
2019-04-25T02:31:24.675Z,1.60
2019-04-25T02:33:53.813Z,1.70
2019-04-25T02:36:24.711Z,1.53
2019-04-25T02:38:54.168Z,2.00
2019-04-25T02:41:25.016Z,1.93
2019-04-25T02:43:56.281Z,1.50
2019-04-25T02:46:44.926Z,1.70
2019-04-25T02:49:32.753Z,1.73
2019-04-25T02:51:56.156Z,1.50
2019-04-25T02:54:24.510Z,1.77
2019-04-25T02:56:54.749Z,1.67
2019-04-25T02:59:25.370Z,1.50
2019-04-25T03:01:54.133Z,1.70
2019-04-25T03:04:24.036Z,1.60
2019-04-25T03:06:55.217Z,1.60
2019-04-25T03:09:24.982Z,1.90
2019-04-25T03:11:54.796Z,2.73
2019-04-25T03:14:24.742Z,1.73
2019-04-25T03:16:54.386Z,2.20
2019-04-25T03:19:26.292Z,2.37
2019-04-25T03:21:56.460Z,2.00
2019-04-25T03:24:25.241Z,1.97
2019-04-25T03:26:53.936Z,1.77
2019-04-25T03:29:22.388Z,2.00
2019-04-25T03:31:50.868Z,2.27
2019-04-25T03:34:20.774Z,2.03
2019-04-25T03:36:49.449Z,2.87
2019-04-25T03:39:17.871Z,2.20
2019-04-25T03:41:46.320Z,2.00
2019-04-25T03:44:15.434Z,2.20
2019-04-25T03:46:44.622Z,2.20
2019-04-25T03:49:13.909Z,2.33
2019-04-25T03:51:43.877Z,2.17
2019-04-25T03:54:14.112Z,2.20
2019-04-25T03:56:51.706Z,2.00
2019-04-25T03:59:14.666Z,2.10
2019-04-25T04:01:43.938Z,2.10
2019-04-25T04:04:13.731Z,2.23
2019-04-25T04:06:44.093Z,2.37
2019-04-25T04:09:15.242Z,2.10
2019-04-25T04:11:43.703Z,1.90
2019-04-25T04:14:12.977Z,2.03
2019-04-25T04:16:44.369Z,1.67
2019-04-25T04:19:14.752Z,2.03
2019-04-25T04:21:48.730Z,1.90
2019-04-25T04:24:18.866Z,1.90
2019-04-25T04:26:48.944Z,2.10
2019-04-25T04:29:17.365Z,2.20
2019-04-25T04:31:45.829Z,1.80
2019-04-25T04:34:14.729Z,2.03
2019-04-25T04:36:46.538Z,1.80
2019-04-25T04:39:16.870Z,1.43
2019-04-25T04:41:44.488Z,1.60
2019-04-25T04:44:14.319Z,1.70
2019-04-25T04:46:43.954Z,1.40
2019-04-25T04:49:14.190Z,1.60
2019-04-25T04:51:44.308Z,1.40
2019-04-25T04:54:13.565Z,1.40
2019-04-25T04:56:43.854Z,1.40
2019-04-25T04:59:14.324Z,1.90
2019-04-25T05:02:00.173Z,1.60
2019-04-25T05:04:30.276Z,1.50
2019-04-25T05:07:16.291Z,1.37
2019-04-25T05:09:44.774Z,1.57
2019-04-25T05:12:14.938Z,2.07
2019-04-25T05:14:43.706Z,1.87
2019-04-25T05:17:14.304Z,2.00
2019-04-25T05:19:43.414Z,1.77
2019-04-25T05:22:14.449Z,1.97
2019-04-25T05:24:43.769Z,2.50
2019-04-25T05:27:14.698Z,2.20
2019-04-25T05:29:43.926Z,1.80
2019-04-25T05:32:13.112Z,2.23
2019-04-25T05:34:44.108Z,2.30
2019-04-25T05:37:14.358Z,2.07
2019-04-25T05:39:43.500Z,2.53
2019-04-25T05:42:15.117Z,2.13
2019-04-25T05:44:44.093Z,2.00
2019-04-25T05:47:13.808Z,1.90
2019-04-25T05:49:44.084Z,2.10
2019-04-25T05:52:13.969Z,1.80
2019-04-25T05:54:44.313Z,1.80
2019-04-25T05:57:13.767Z,1.80
2019-04-25T05:59:43.664Z,1.80
2019-04-25T06:02:13.968Z,1.73
2019-04-25T06:04:43.590Z,1.80
2019-04-25T06:07:12.203Z,1.73
2019-04-25T06:09:44.256Z,1.57
2019-04-25T06:12:14.214Z,1.73
2019-04-25T06:14:43.383Z,1.30
2019-04-25T06:17:16.452Z,1.40
2019-04-25T06:19:48.944Z,1.40
2019-04-25T06:22:19.963Z,0.97
2019-04-25T06:24:57.058Z,0.90
2019-04-25T06:27:27.188Z,1.10
2019-04-25T06:30:00.607Z,1.27
2019-04-25T06:32:27.495Z,0.93
2019-04-25T06:34:55.911Z,1.10
2019-04-25T06:37:27.281Z,1.30
2019-04-25T06:39:56.645Z,1.10
2019-04-25T06:42:25.749Z,0.90
2019-04-25T06:45:07.793Z,1.20
2019-04-25T06:47:46.544Z,1.23
2019-04-25T06:50:15.843Z,1.00
2019-04-25T06:52:44.361Z,1.00
2019-04-25T06:55:14.104Z,0.93
2019-04-25T06:57:44.162Z,1.03
2019-04-25T07:00:14.599Z,1.00
2019-04-25T07:02:43.519Z,1.17
2019-04-25T07:05:25.834Z,1.23
2019-04-25T07:07:45.438Z,1.10
2019-04-25T07:10:14.604Z,1.00
2019-04-25T07:12:44.384Z,1.23
2019-04-25T07:15:14.443Z,1.00
2019-04-25T07:17:43.642Z,1.00
2019-04-25T07:20:13.944Z,0.93
2019-04-25T07:22:43.741Z,1.00
2019-04-25T07:25:14.305Z,1.30
2019-04-25T07:27:44.868Z,1.00
2019-04-25T07:30:40.105Z,1.00
2019-04-25T07:33:05.963Z,0.83
2019-04-25T07:35:34.696Z,1.00
2019-04-25T07:38:04.283Z,1.23
2019-04-25T07:40:34.050Z,1.20
2019-04-25T07:43:03.218Z,1.20
2019-04-25T07:45:35.044Z,0.90
2019-04-25T07:48:05.120Z,0.83
2019-04-25T07:50:34.308Z,1.17
2019-04-25T07:53:05.703Z,1.03
2019-04-25T07:55:36.358Z,1.00
2019-04-25T07:58:05.454Z,0.93
2019-04-25T08:00:36.110Z,0.80
2019-04-25T08:03:04.833Z,1.20
2019-04-25T08:05:35.178Z,1.07
2019-04-25T08:08:03.807Z,0.77
2019-04-25T08:10:38.210Z,1.10
2019-04-25T08:13:06.686Z,0.90
2019-04-25T08:15:43.674Z,1.20
2019-04-25T08:18:13.933Z,1.13
2019-04-25T08:20:43.397Z,1.00
2019-04-25T08:23:13.750Z,0.97
2019-04-25T08:25:43.261Z,0.83
2019-04-25T08:28:13.734Z,1.03
2019-04-25T08:30:43.594Z,1.00
2019-04-25T08:33:13.913Z,1.20
2019-04-25T08:36:02.825Z,1.00
2019-04-25T08:38:13.766Z,0.93
2019-04-25T08:40:43.975Z,0.80
2019-04-25T08:43:14.560Z,1.10
2019-04-25T08:45:44.235Z,1.13
2019-04-25T08:48:13.631Z,0.87
2019-04-25T08:50:44.553Z,1.20
2019-04-25T08:53:13.662Z,0.97
2019-04-25T08:55:57.034Z,0.97
2019-04-25T08:58:45.204Z,1.40
2019-04-25T09:01:15.855Z,0.87
2019-04-25T09:03:45.925Z,1.20
2019-04-25T09:06:14.380Z,1.17
2019-04-25T09:08:44.011Z,0.97
2019-04-25T09:11:14.154Z,1.07
2019-04-25T09:13:43.845Z,1.10
2019-04-25T09:16:13.516Z,0.80
2019-04-25T09:18:44.306Z,0.80
2019-04-25T09:21:13.778Z,1.63
2019-04-25T09:23:43.772Z,0.90
2019-04-25T09:26:14.177Z,0.90
2019-04-25T09:28:45.284Z,1.10
2019-04-25T09:31:13.926Z,1.10
2019-04-25T09:33:45.100Z,1.10
2019-04-25T09:36:14.150Z,1.30
2019-04-25T09:38:46.999Z,1.00
2019-04-25T09:41:15.040Z,1.20
2019-04-25T09:43:45.705Z,1.17
2019-04-25T09:46:18.765Z,1.30
2019-04-25T09:48:51.244Z,1.20
2019-04-25T09:51:21.299Z,0.90
2019-04-25T09:53:51.575Z,0.63
2019-04-25T09:56:21.712Z,1.20
2019-04-25T09:58:51.770Z,1.00
2019-04-25T10:01:21.063Z,1.10
2019-04-25T10:03:49.492Z,0.70
2019-04-25T10:06:19.461Z,0.70
2019-04-25T10:08:48.034Z,0.70
2019-04-25T10:11:17.258Z,0.93
2019-04-25T10:13:48.769Z,0.70
2019-04-25T10:16:17.448Z,0.60
2019-04-25T10:18:45.942Z,0.90
2019-04-25T10:21:15.131Z,0.80
2019-04-25T10:23:45.241Z,0.87
2019-04-25T10:26:14.587Z,1.53
2019-04-25T10:28:44.158Z,0.97
2019-04-25T10:31:13.988Z,0.90
2019-04-25T10:33:45.265Z,1.00
2019-04-25T10:36:14.480Z,0.93
2019-04-25T10:38:46.702Z,0.60
2019-04-25T10:41:14.535Z,0.80
2019-04-25T10:43:44.014Z,0.97
2019-04-25T10:46:14.239Z,1.00
2019-04-25T10:48:43.756Z,1.10
2019-04-25T10:51:13.946Z,0.80
2019-04-25T10:53:45.474Z,0.80
2019-04-25T10:56:14.116Z,0.70
2019-04-25T10:58:44.427Z,1.10
2019-04-25T11:01:15.030Z,0.90
2019-04-25T11:03:51.724Z,1.13
2019-04-25T11:06:23.764Z,0.80
2019-04-25T11:08:55.459Z,0.90
2019-04-25T11:11:23.989Z,1.17
2019-04-25T11:13:55.637Z,1.03
2019-04-25T11:16:24.319Z,1.03
2019-04-25T11:18:54.709Z,0.97
2019-04-25T11:21:24.261Z,0.80
2019-04-25T11:23:54.995Z,0.87
2019-04-25T11:26:23.772Z,1.10
2019-04-25T11:28:52.280Z,0.97
2019-04-25T11:31:23.535Z,1.10
2019-04-25T11:33:52.105Z,1.00
2019-04-25T11:36:20.519Z,0.90
2019-04-25T11:38:53.802Z,0.90
2019-04-25T11:41:24.309Z,1.10
2019-04-25T11:43:55.291Z,0.90
2019-04-25T11:46:24.211Z,0.67
2019-04-25T11:48:54.718Z,0.70
2019-04-25T11:51:24.115Z,0.87
2019-04-25T11:53:54.599Z,0.87
2019-04-25T11:56:24.124Z,0.70
2019-04-25T11:58:54.134Z,0.80
2019-04-25T12:01:24.339Z,0.70
2019-04-25T12:03:54.884Z,0.80
2019-04-25T12:06:24.303Z,0.80
2019-04-25T12:08:54.913Z,0.73
2019-04-25T12:11:23.651Z,1.13
2019-04-25T12:13:53.812Z,0.90
2019-04-25T12:16:24.571Z,0.70
2019-04-25T12:18:55.281Z,0.60
2019-04-25T12:21:23.972Z,0.90
2019-04-25T12:23:52.571Z,1.03
2019-04-25T12:26:21.057Z,0.90
2019-04-25T12:28:49.511Z,0.77
2019-04-25T12:31:17.932Z,1.13
2019-04-25T12:33:48.605Z,0.80
2019-04-25T12:36:16.538Z,1.00
2019-04-25T12:38:46.015Z,1.30
2019-04-25T12:41:14.861Z,0.80
2019-04-25T12:43:45.751Z,1.03
2019-04-25T12:46:18.862Z,0.73
2019-04-25T12:48:47.669Z,0.80
2019-04-25T12:51:16.856Z,0.93
2019-04-25T12:53:46.507Z,0.77
2019-04-25T12:56:15.149Z,0.70
2019-04-25T12:58:43.638Z,0.80
2019-04-25T13:01:12.227Z,0.70
2019-04-25T13:03:40.697Z,1.00
2019-04-25T13:06:09.287Z,0.70
2019-04-25T13:08:37.787Z,0.83
2019-04-25T13:11:09.745Z,0.80
2019-04-25T13:13:36.906Z,0.90
2019-04-25T13:16:05.501Z,0.80
2019-04-25T13:18:33.971Z,0.87
2019-04-25T13:21:03.521Z,0.97
2019-04-25T13:23:32.175Z,0.97
2019-04-25T13:26:01.621Z,0.80
2019-04-25T13:31:24.094Z,0.80
2019-04-25T13:34:09.666Z,0.87
2019-04-25T13:36:38.319Z,0.80
2019-04-25T13:39:09.359Z,1.07
2019-04-25T13:41:37.837Z,0.73
2019-04-25T13:44:07.123Z,0.90
2019-04-25T13:46:35.845Z,1.00
2019-04-25T13:49:05.281Z,0.90
2019-04-25T13:51:33.704Z,0.87
2019-04-25T13:54:02.140Z,1.20
2019-04-25T13:56:30.756Z,1.00
2019-04-25T13:58:59.457Z,0.90
2019-04-25T14:01:28.044Z,1.07
2019-04-25T14:03:57.067Z,0.87
2019-04-25T14:06:26.222Z,0.90
2019-04-25T14:08:55.015Z,0.80
2019-04-25T14:11:24.105Z,0.87
2019-04-25T14:13:53.426Z,0.97
2019-04-25T14:16:30.250Z,0.80
2019-04-25T14:19:15.706Z,0.80
2019-04-25T14:21:44.150Z,0.80
2019-04-25T14:24:20.176Z,1.07
2019-04-25T14:26:42.801Z,1.27
2019-04-25T14:29:11.234Z,1.00
2019-04-25T14:31:45.641Z,0.80
2019-04-25T14:34:09.809Z,0.90
2019-04-25T14:36:38.226Z,0.93
2019-04-25T14:39:08.205Z,0.97
2019-04-25T14:41:36.688Z,1.20
2019-04-25T14:44:05.522Z,1.10
2019-04-25T14:46:33.953Z,1.10
2019-04-25T14:49:02.893Z,0.67
2019-04-25T14:51:31.391Z,0.90
2019-04-25T14:54:01.380Z,1.00
2019-04-25T14:56:48.050Z,0.80
2019-04-25T14:59:16.940Z,1.00
2019-04-25T15:01:45.520Z,0.90
2019-04-25T15:04:14.083Z,0.87
2019-04-25T15:06:42.614Z,0.90
2019-04-25T15:09:11.355Z,0.90
2019-04-25T15:11:39.912Z,0.90
2019-04-25T15:14:09.020Z,0.83
2019-04-25T15:16:37.448Z,0.93
2019-04-25T15:19:05.973Z,0.70
2019-04-25T15:21:34.432Z,1.07
2019-04-25T15:24:04.203Z,0.90
2019-04-25T15:26:33.282Z,1.10
2019-04-25T15:29:02.449Z,0.90
2019-04-25T15:31:31.984Z,0.90
2019-04-25T15:34:02.407Z,0.90
2019-04-25T15:36:33.239Z,1.00
2019-04-25T15:39:03.678Z,1.20
2019-04-25T15:41:42.788Z,1.10
2019-04-25T15:44:36.762Z,0.90
2019-04-25T15:47:06.840Z,1.00
2019-04-25T15:49:35.263Z,0.90
2019-04-25T15:52:04.544Z,0.60
2019-04-25T15:54:33.882Z,0.80
2019-04-25T15:57:02.389Z,0.80
2019-04-25T15:59:30.908Z,0.90
2019-04-25T16:02:07.992Z,0.70
2019-04-25T16:04:30.391Z,0.90
2019-04-25T16:06:59.107Z,0.90
2019-04-25T16:09:27.974Z,1.00
2019-04-25T16:11:56.709Z,0.93
2019-04-25T16:14:26.391Z,0.93
2019-04-25T16:16:55.081Z,0.77
2019-04-25T16:19:23.561Z,0.70
2019-04-25T16:21:52.435Z,0.87
2019-04-25T16:24:20.889Z,1.20
2019-04-25T16:26:49.312Z,0.70
2019-04-25T16:29:17.729Z,0.90
2019-04-25T16:31:46.191Z,0.80
2019-04-25T16:34:14.650Z,0.97
2019-04-25T16:36:43.236Z,1.10
2019-04-25T16:39:13.296Z,1.50
2019-04-25T16:41:42.625Z,1.27
2019-04-25T16:44:12.886Z,1.03
2019-04-25T16:46:41.747Z,1.07
2019-04-25T16:49:10.430Z,1.13
2019-04-25T16:51:38.869Z,0.80
2019-04-25T16:54:07.298Z,1.27
2019-04-25T16:56:35.817Z,0.90
2019-04-25T16:59:04.395Z,0.93
2019-04-25T17:01:33.788Z,0.97
2019-04-25T17:04:02.807Z,1.00
2019-04-25T17:06:31.896Z,1.43
2019-04-25T17:09:00.567Z,0.90
2019-04-25T17:11:29.498Z,1.17
2019-04-25T17:14:00.911Z,0.80
2019-04-25T17:16:46.910Z,1.40
2019-04-25T17:19:17.337Z,1.00
2019-04-25T17:21:46.347Z,1.03
2019-04-25T17:24:14.933Z,1.10
2019-04-25T17:26:43.346Z,1.30
2019-04-25T17:29:13.494Z,1.17
2019-04-25T17:31:55.874Z,0.93
2019-04-25T17:34:25.944Z,1.10
2019-04-25T17:36:56.112Z,1.30
2019-04-25T17:39:26.214Z,0.90
2019-04-25T17:41:54.650Z,1.50
2019-04-25T17:44:23.102Z,1.10
2019-04-25T17:46:51.531Z,1.27
2019-04-25T17:49:19.953Z,1.00
2019-04-25T17:51:48.436Z,0.97
2019-04-25T17:54:18.442Z,1.13
2019-04-25T17:56:47.140Z,1.10
2019-04-25T17:59:15.662Z,0.93
2019-04-25T18:01:44.332Z,1.20
2019-04-25T18:04:13.017Z,1.30
2019-04-25T18:06:42.096Z,1.00
2019-04-25T18:09:11.374Z,1.03
2019-04-25T18:11:40.227Z,1.27
2019-04-25T18:14:08.692Z,1.27
2019-04-25T18:16:40.388Z,1.07
2019-04-25T18:19:10.490Z,1.10
2019-04-25T18:21:39.323Z,0.93
2019-04-25T18:24:25.552Z,1.07
2019-04-25T18:26:55.615Z,0.90
2019-04-25T18:29:25.757Z,1.20
2019-04-25T18:31:54.573Z,1.03
2019-04-25T18:34:33.628Z,1.10
2019-04-25T18:37:19.094Z,0.83
2019-04-25T18:40:01.178Z,0.90
2019-04-25T18:42:49.544Z,1.13
2019-04-25T18:45:22.390Z,1.03
2019-04-25T18:47:50.812Z,1.30
2019-04-25T18:50:20.901Z,1.20
2019-04-25T18:52:53.976Z,1.13
2019-04-25T18:55:30.057Z,0.90
2019-04-25T18:58:05.910Z,1.33
2019-04-25T19:00:45.791Z,1.10
2019-04-25T19:03:22.717Z,0.90
2019-04-25T19:05:51.501Z,1.33
2019-04-25T19:08:20.152Z,1.30
2019-04-25T19:10:48.701Z,0.97
2019-04-25T19:13:17.348Z,1.10
2019-04-25T19:15:45.903Z,1.40
2019-04-25T19:18:14.414Z,1.40
2019-04-25T19:20:43.870Z,1.30
2019-04-25T19:23:12.675Z,1.43
2019-04-25T19:25:41.586Z,1.30
2019-04-25T19:28:10.254Z,1.40
2019-04-25T19:30:39.756Z,1.27
2019-04-25T19:33:08.609Z,1.10
2019-04-25T19:35:37.067Z,1.33
2019-04-25T19:38:05.480Z,1.03
2019-04-25T19:40:36.123Z,1.17
2019-04-25T19:43:22.982Z,1.03
2019-04-25T19:45:51.416Z,1.00
2019-04-25T19:48:19.851Z,0.90
2019-04-25T19:50:54.233Z,1.20
2019-04-25T19:53:22.664Z,1.00
2019-04-25T19:56:03.239Z,1.17
2019-04-25T19:58:31.704Z,1.00
2019-04-25T20:01:00.173Z,0.83
2019-04-25T20:03:33.687Z,0.80
2019-04-25T20:06:09.622Z,0.90
2019-04-25T20:08:48.792Z,0.90
2019-04-25T20:11:25.051Z,0.83
2019-04-25T20:13:57.435Z,1.00
2019-04-25T20:16:26.548Z,1.17
2019-04-25T20:18:55.159Z,1.03
2019-04-25T20:21:23.812Z,1.20
2019-04-25T20:23:52.250Z,1.43
2019-04-25T20:26:21.115Z,1.10
2019-04-25T20:28:49.902Z,1.20
2019-04-25T20:31:18.569Z,1.40
2019-04-25T20:33:47.036Z,0.93
2019-04-25T20:36:17.954Z,1.00
2019-04-25T20:38:47.218Z,0.90
2019-04-25T20:41:16.431Z,1.00
2019-04-25T20:43:45.007Z,1.10
2019-04-25T20:46:13.477Z,1.13
2019-04-25T20:48:42.270Z,0.90
2019-04-25T20:51:10.709Z,1.43
2019-04-25T20:53:39.217Z,1.00
2019-04-25T20:56:07.646Z,0.80
2019-04-25T20:58:36.064Z,1.77
2019-04-25T21:01:04.565Z,1.00
2019-04-25T21:03:33.041Z,1.00
2019-04-25T21:06:05.911Z,1.10
2019-04-25T21:08:34.374Z,1.00
2019-04-25T21:11:02.875Z,1.00
2019-04-25T21:13:47.785Z,1.27
2019-04-25T21:16:29.842Z,1.10
2019-04-25T21:18:59.904Z,1.37
2019-04-25T21:21:28.326Z,0.80
2019-04-25T21:23:57.002Z,1.07
2019-04-25T21:26:25.545Z,1.17
2019-04-25T21:28:54.346Z,0.80
2019-04-25T21:31:22.795Z,1.37
2019-04-25T21:33:51.502Z,0.80
2019-04-25T21:36:21.209Z,0.90
2019-04-25T21:38:50.110Z,1.07
2019-04-25T21:41:38.260Z,1.00
2019-04-25T21:44:07.855Z,1.17
2019-04-25T21:46:36.292Z,1.13
2019-04-25T21:49:05.879Z,0.90
2019-04-25T21:51:34.315Z,1.07
2019-04-25T21:54:03.758Z,1.00
2019-04-25T21:56:33.082Z,1.10
2019-04-25T21:59:01.967Z,1.10
2019-04-25T22:01:38.599Z,1.40
2019-04-25T22:04:07.142Z,0.90
2019-04-25T22:06:36.174Z,1.50
2019-04-25T22:09:08.322Z,1.10
2019-04-25T22:11:36.770Z,1.40
2019-04-25T22:14:06.199Z,1.37
2019-04-25T22:16:35.125Z,0.90
2019-04-25T22:19:04.853Z,1.30
2019-04-25T22:21:38.143Z,1.03
2019-04-25T22:24:11.259Z,1.00
2019-04-25T22:26:34.842Z,1.00
2019-04-25T22:29:05.381Z,1.03
2019-04-25T22:31:44.381Z,1.00
2019-04-25T22:34:14.457Z,1.00
2019-04-25T22:36:43.382Z,0.73
2019-04-25T22:39:12.762Z,1.00
2019-04-25T22:41:46.469Z,0.77
2019-04-25T22:44:16.641Z,1.00
2019-04-25T22:46:45.432Z,1.00
2019-04-25T22:49:14.322Z,0.93
2019-04-25T22:51:43.190Z,0.87
2019-04-25T22:54:12.157Z,1.10
2019-04-25T22:56:40.578Z,1.03
2019-04-25T22:59:09.477Z,0.70
2019-04-25T23:01:48.186Z,0.83
2019-04-25T23:04:27.062Z,1.00
2019-04-25T23:06:55.492Z,1.10
2019-04-25T23:09:23.897Z,1.10
2019-04-25T23:11:52.597Z,1.20
2019-04-25T23:14:21.603Z,0.87
2019-04-25T23:16:50.054Z,1.00
2019-04-25T23:19:18.539Z,0.90
2019-04-25T23:21:47.349Z,1.30
2019-04-25T23:24:17.512Z,1.07
2019-04-25T23:27:03.688Z,1.00
2019-04-25T23:29:33.127Z,1.20
2019-04-25T23:32:01.566Z,0.80
2019-04-25T23:34:30.448Z,0.73
2019-04-25T23:36:58.908Z,0.70
2019-04-25T23:39:28.206Z,0.93
2019-04-25T23:41:56.618Z,1.00
2019-04-25T23:44:25.058Z,1.00
2019-04-25T23:46:53.865Z,0.80
2019-04-25T23:49:22.368Z,0.70
2019-04-25T23:51:51.534Z,0.70
2019-04-25T23:54:20.036Z,0.80
2019-04-25T23:56:48.506Z,0.80
2019-04-25T23:59:17.793Z,1.53
